Time;durP1;ratioP1;P1;durP2;ratioP2;P2;SDS_P1;SDS_P2;PMS_P1;PMS_P2;Temp;Humidity;BMP_temperature;BMP_pressure;BME280_temperature;BME280_humidity;BME280_pressure;Samples;Min_cycle;Max_cycle;Signal;HPM_P1;HPM_P2
2022/02/08 00:00:52;;;;;;;33.78;20.65;;;;;;;9.46;62.29;98530.11;1746651;80;21407;-54
2022/02/08 00:03:20;;;;;;;31.20;19.85;;;;;;;9.50;62.16;98531.63;1766569;80;21526;-54
2022/02/08 00:06:06;;;;;;;34.03;21.95;;;;;;;9.57;62.07;98541.29;1757681;80;21492;-54
2022/02/08 00:08:19;;;;;;;30.00;21.87;;;;;;;9.56;62.04;98541.77;1742228;80;21541;-53
2022/02/08 00:10:46;;;;;;;30.80;19.48;;;;;;;9.51;62.02;98549.04;1751137;80;21469;-53
2022/02/08 00:13:13;;;;;;;25.70;18.92;;;;;;;9.46;62.01;98555.87;1756006;80;21486;-53
2022/02/08 00:15:39;;;;;;;26.48;18.02;;;;;;;9.48;62.04;98556.62;1746089;80;21607;-52
2022/02/08 00:18:07;;;;;;;25.92;18.32;;;;;;;9.46;62.12;98557.19;1758348;80;21384;-53
2022/02/08 00:20:34;;;;;;;26.42;18.30;;;;;;;9.46;62.12;98558.49;1742942;80;21586;-54
2022/02/08 00:23:01;;;;;;;25.92;17.55;;;;;;;9.39;62.10;98562.38;1748751;80;21050;-54
2022/02/08 00:25:27;;;;;;;25.27;17.73;;;;;;;9.31;62.27;98565.42;1746248;80;21402;-54
2022/02/08 00:27:54;;;;;;;24.10;16.62;;;;;;;9.31;62.53;98572.46;1751459;80;22796;-54
2022/02/08 00:30:21;;;;;;;23.02;15.23;;;;;;;9.33;62.49;98577.99;1740033;80;21486;-54
2022/02/08 00:32:48;;;;;;;18.50;13.95;;;;;;;9.41;62.67;98577.57;1749825;80;21537;-53
2022/02/08 00:35:14;;;;;;;20.95;13.90;;;;;;;9.42;62.55;98571.84;1754275;80;21442;-53
2022/02/08 00:37:41;;;;;;;17.77;13.60;;;;;;;9.41;62.45;98581.50;1744461;80;21459;-54
2022/02/08 00:40:09;;;;;;;16.15;11.88;;;;;;;9.39;62.46;98577.28;1741982;80;22503;-53
2022/02/08 00:42:36;;;;;;;9.85;7.85;;;;;;;9.34;64.35;98578.83;1749079;80;21499;-54
2022/02/08 00:45:25;;;;;;;10.23;7.03;;;;;;;9.34;64.36;98582.33;1745912;80;21477;-55
2022/02/08 00:47:48;;;;;;;8.13;6.78;;;;;;;9.37;64.53;98584.39;1712875;82;21456;-56
2022/02/08 00:50:11;;;;;;;7.03;6.15;;;;;;;9.35;64.56;98587.94;1742633;80;21484;-54
2022/02/08 00:52:39;;;;;;;6.67;5.45;;;;;;;9.29;64.87;98587.44;1750899;80;22507;-53
2022/02/08 00:55:09;;;;;;;9.48;5.12;;;;;;;9.27;64.67;98589.30;1745968;80;21476;-54
2022/02/08 00:57:36;;;;;;;8.35;5.08;;;;;;;9.30;64.64;98589.11;1735760;80;21529;-55
2022/02/08 01:00:06;;;;;;;6.45;5.10;;;;;;;9.29;64.26;98594.83;1746623;80;21969;-55
2022/02/08 01:02:33;;;;;;;7.72;5.08;;;;;;;9.28;64.86;98598.37;1743387;80;21610;-55
2022/02/08 01:05:03;;;;;;;5.85;4.70;;;;;;;9.18;64.11;98603.75;1752660;80;22447;-55
2022/02/08 01:07:29;;;;;;;6.37;5.22;;;;;;;9.12;63.50;98613.27;1747100;80;21320;-56
2022/02/08 01:09:59;;;;;;;6.90;5.30;;;;;;;9.19;63.07;98608.52;1754243;80;21092;-55
2022/02/08 01:12:29;;;;;;;5.47;4.05;;;;;;;9.23;62.83;98610.91;1742633;80;20898;-55
2022/02/08 01:14:58;;;;;;;7.40;5.33;;;;;;;9.28;62.50;98612.80;1746336;80;21419;-56
2022/02/08 01:17:27;;;;;;;5.95;4.92;;;;;;;9.31;62.38;98625.77;1759894;80;21858;-55
2022/02/08 01:20:02;;;;;;;5.87;4.55;;;;;;;9.23;62.99;98632.34;1745108;80;21487;-55
2022/02/08 01:22:23;;;;;;;6.28;4.75;;;;;;;9.10;63.00;98626.92;1738173;80;21037;-56
2022/02/08 01:24:51;;;;;;;7.55;4.28;;;;;;;9.07;62.38;98635.77;1746060;80;21546;-55
2022/02/08 01:27:22;;;;;;;5.30;3.87;;;;;;;9.05;62.37;98641.56;1753467;80;21506;-55
2022/02/08 01:35:26;;;;;;;4.97;3.17;;;;;;;9.08;61.93;98641.86;1751058;80;22233;-55
2022/02/08 01:40:36;;;;;;;5.20;2.72;;;;;;;8.36;77.87;98643.74;1744066;80;20878;-55
2022/02/08 01:46:03;;;;;;;4.10;3.08;;;;;;;7.86;79.63;98654.92;1757421;80;21444;-55
2022/02/08 01:48:40;;;;;;;3.53;2.90;;;;;;;7.71;79.79;98657.33;1729631;80;21139;-55
2022/02/08 01:50:55;;;;;;;4.30;2.75;;;;;;;7.68;80.16;98650.08;1747468;80;21232;-55
2022/02/08 01:53:23;;;;;;;3.17;2.72;;;;;;;7.77;79.73;98653.11;1746818;80;20999;-55
2022/02/08 01:55:51;;;;;;;4.00;2.52;;;;;;;7.76;79.10;98658.41;1751324;80;21482;-55
2022/02/08 01:58:20;;;;;;;2.95;2.58;;;;;;;7.65;79.21;98657.63;1755994;80;21498;-55
2022/02/08 02:00:47;;;;;;;2.75;2.22;;;;;;;7.60;79.52;98666.98;1747800;80;21432;-55
2022/02/08 02:03:15;;;;;;;3.02;2.58;;;;;;;7.68;79.40;98670.54;1750802;80;21340;-55
2022/02/08 02:05:42;;;;;;;4.05;2.75;;;;;;;7.69;79.52;98667.02;1754950;80;21455;-55
2022/02/08 02:08:09;;;;;;;3.65;2.60;;;;;;;7.52;73.74;98666.96;1760629;80;22655;-55
2022/02/08 02:10:37;;;;;;;3.17;2.87;;;;;;;7.47;71.36;98667.16;1756002;80;21461;-56
2022/02/08 02:13:22;;;;;;;3.33;3.02;;;;;;;7.50;70.38;98677.48;1771361;80;20874;-55
2022/02/08 02:15:36;;;;;;;4.17;3.08;;;;;;;7.54;70.06;98685.58;1761626;80;21752;-54
2022/02/08 02:18:03;;;;;;;6.03;3.83;;;;;;;7.54;69.63;98684.73;1769378;80;21506;-56
2022/02/08 02:20:32;;;;;;;5.40;4.20;;;;;;;7.48;69.48;98684.99;1752511;80;22294;-55
2022/02/08 02:22:59;;;;;;;6.08;4.30;;;;;;;7.40;69.55;98687.95;1755328;80;21457;-55
2022/02/08 02:25:31;;;;;;;5.47;4.00;;;;;;;7.32;69.46;98692.69;1767745;80;21036;-55
2022/02/08 02:28:01;;;;;;;6.08;4.35;;;;;;;7.34;69.42;98693.00;1749801;80;21572;-55
2022/02/08 02:30:31;;;;;;;8.40;5.12;;;;;;;7.37;69.31;98695.49;1756965;80;21170;-55
2022/02/08 02:32:59;;;;;;;5.72;4.75;;;;;;;7.36;69.31;98701.62;1758105;80;21741;-55
2022/02/08 02:35:28;;;;;;;5.80;5.03;;;;;;;7.26;69.03;98704.27;1764532;80;21347;-55
2022/02/08 02:37:57;;;;;;;6.22;4.53;;;;;;;7.30;69.20;98710.22;1757466;80;20938;-54
2022/02/08 02:40:27;;;;;;;4.80;3.95;;;;;;;7.31;69.11;98713.20;1763711;80;21502;-55
2022/02/08 02:42:54;;;;;;;4.47;3.67;;;;;;;7.33;68.87;98717.47;1758187;80;21419;-55
2022/02/08 02:45:21;;;;;;;6.30;4.35;;;;;;;7.38;68.73;98721.17;1763668;80;21506;-55
2022/02/08 02:47:51;;;;;;;5.42;4.20;;;;;;;7.31;68.84;98718.44;1758377;80;21506;-55
2022/02/08 02:50:21;;;;;;;7.47;4.03;;;;;;;7.20;68.94;98722.85;1756720;80;21512;-55
2022/02/08 02:52:49;;;;;;;4.90;3.77;;;;;;;7.20;69.07;98728.08;1727785;82;21577;-55
2022/02/08 02:55:16;;;;;;;4.97;3.67;;;;;;;7.28;69.07;98730.36;1763009;80;21575;-55
2022/02/08 02:57:46;;;;;;;5.60;3.77;;;;;;;7.31;68.94;98736.30;1764641;80;22340;-55
2022/02/08 03:00:26;;;;;;;5.20;3.30;;;;;;;7.18;68.90;98741.22;1762095;80;21451;-55
2022/02/08 03:02:52;;;;;;;5.70;3.25;;;;;;;7.09;68.93;98742.08;1750450;80;21443;-55
2022/02/08 03:05:49;;;;;;;6.90;3.37;;;;;;;7.15;69.12;98742.64;1748209;80;20981;-56
2022/02/08 03:19:01;;;;;;;3.90;2.83;;;;;;;7.05;69.03;98770.57;1745792;80;21459;-55
2022/02/08 03:21:28;;;;;;;3.17;2.42;;;;;;;7.01;69.15;98772.46;1747772;80;21359;-55
2022/02/08 03:23:55;;;;;;;3.17;2.87;;;;;;;7.10;69.19;98781.66;1740920;80;22588;-54
2022/02/08 03:26:22;;;;;;;2.80;2.58;;;;;;;7.11;68.89;98782.06;1749579;80;21446;-53
2022/02/08 03:28:57;;;;;;;6.03;2.92;;;;;;;7.11;68.86;98788.60;1753427;80;21546;-54
2022/02/08 03:31:25;;;;;;;2.90;2.47;;;;;;;7.02;68.82;98786.75;1745922;80;20987;-53
2022/02/08 03:33:52;;;;;;;5.50;2.83;;;;;;;7.02;68.92;98791.98;1753281;80;21375;-54
2022/02/08 03:36:19;;;;;;;6.00;2.60;;;;;;;7.11;69.09;98796.45;1748619;80;21733;-53
2022/02/08 03:38:59;;;;;;;3.40;2.95;;;;;;;7.16;68.88;98800.56;1760335;80;21522;-54
2022/02/08 03:41:16;;;;;;;3.12;2.83;;;;;;;7.11;68.90;98805.13;1694156;83;21436;-54
2022/02/08 03:43:46;;;;;;;2.83;2.02;;;;;;;7.08;69.03;98808.33;1754378;80;21366;-53
2022/02/08 03:46:18;;;;;;;2.75;2.25;;;;;;;7.07;68.93;98802.72;1746941;80;21415;-54
2022/02/08 03:48:44;;;;;;;3.58;2.58;;;;;;;7.13;68.72;98807.69;1739183;80;22382;-54
2022/02/08 03:51:15;;;;;;;2.90;2.27;;;;;;;7.14;68.66;98814.59;1752567;80;20906;-53
2022/02/08 03:53:53;;;;;;;3.52;2.80;;;;;;;7.15;68.50;98820.23;1745196;80;21496;-53
2022/02/08 03:56:23;;;;;;;2.80;2.45;;;;;;;7.11;68.72;98822.12;1750957;80;21478;-53
2022/02/08 03:58:55;;;;;;;2.90;2.70;;;;;;;7.10;68.70;98826.97;1748093;80;21423;-54
2022/02/08 04:06:45;;;;;;;2.87;2.67;;;;;;;7.30;68.12;98846.19;1745892;80;21474;-55
2022/02/08 04:09:11;;;;;;;2.60;2.40;;;;;;;7.27;68.03;98854.16;1748501;80;20953;-55
2022/02/08 04:11:51;;;;;;;4.22;2.85;;;;;;;7.23;68.14;98857.35;1742889;80;21476;-54
2022/02/08 04:14:27;;;;;;;4.85;3.20;;;;;;;7.27;67.85;98859.38;1746447;80;22318;-54
2022/02/08 04:16:45;;;;;;;7.22;3.72;;;;;;;7.35;67.91;98866.01;1746486;80;21344;-54
2022/02/08 04:19:21;;;;;;;5.28;3.90;;;;;;;7.34;67.66;98869.52;1750715;80;21509;-54
2022/02/08 04:32:48;;;;;;;5.70;3.37;;;;;;;7.29;67.79;98899.39;1755899;80;21494;-53
2022/02/08 04:35:34;;;;;;;4.90;3.33;;;;;;;7.12;67.65;98904.00;1759389;80;21578;-56
2022/02/08 04:37:59;;;;;;;5.20;3.17;;;;;;;7.10;67.73;98911.05;1747294;80;21505;-53
2022/02/08 04:43:04;;;;;;;6.10;3.10;;;;;;;7.15;67.76;98926.11;1721765;82;20858;-53
2022/02/08 04:45:29;;;;;;;4.83;3.15;;;;;;;7.15;67.84;98927.42;1709877;82;21482;-53
2022/02/08 04:48:23;;;;;;;4.47;2.90;;;;;;;7.13;67.83;98930.09;1713826;82;21022;-53
2022/02/08 04:50:18;;;;;;;4.87;2.90;;;;;;;7.07;68.06;98938.65;1702070;82;21525;-54
2022/02/08 04:52:47;;;;;;;4.25;3.00;;;;;;;7.14;67.77;98944.88;1750704;80;23326;-53
2022/02/08 04:55:43;;;;;;;;;;;;;;;7.16;67.85;98947.44;1748717;80;21450;-53
2022/02/08 05:00:44;;;;;;;4.70;3.08;;;;;;;7.23;67.21;98951.48;1746680;80;21448;-53
2022/02/08 05:35:50;;;;;;;4.35;2.85;;;;;;;7.27;67.29;99005.38;1751110;80;21593;-58
2022/02/08 05:48:41;;;;;;;3.90;2.67;;;;;;;7.37;66.54;99017.64;1696051;83;21623;-54
2022/02/08 05:51:12;;;;;;;5.80;1.98;;;;;;;7.34;66.22;99024.28;1754883;80;21400;-54
2022/02/08 05:53:45;;;;;;;5.70;2.80;;;;;;;7.32;66.31;99025.64;1747418;79;21412;-54
2022/02/08 05:56:02;;;;;;;2.50;2.27;;;;;;;7.36;65.92;99035.53;1748334;80;21396;-54
2022/02/08 05:58:29;;;;;;;4.25;2.50;;;;;;;7.47;65.88;99042.96;1749659;80;23017;-55
2022/02/08 06:00:55;;;;;;;3.52;3.10;;;;;;;7.51;65.07;99045.84;1705833;80;21397;-54
2022/02/08 06:03:31;;;;;;;4.08;2.85;;;;;;;7.58;64.86;99048.16;1754822;80;21495;-55
2022/02/08 06:05:58;;;;;;;4.45;2.40;;;;;;;7.58;64.96;99053.39;1756438;80;21419;-56
2022/02/08 06:08:26;;;;;;;3.30;2.33;;;;;;;7.71;64.63;99052.91;1754176;80;21580;-54
2022/02/08 06:11:01;;;;;;;2.65;2.33;;;;;;;7.79;64.44;99052.97;1764904;80;21436;-55
2022/02/08 06:13:23;;;;;;;5.20;3.02;;;;;;;7.89;63.73;99053.47;1758889;80;21518;-54
2022/02/08 06:15:59;;;;;;;2.93;2.23;;;;;;;7.84;63.48;99055.88;1762135;80;21628;-55
2022/02/08 06:18:19;;;;;;;2.42;1.92;;;;;;;7.85;63.18;99058.88;1756834;80;21525;-54
2022/02/08 06:20:47;;;;;;;3.55;2.17;;;;;;;7.95;63.42;99049.28;1764747;80;21422;-54
2022/02/08 06:23:14;;;;;;;5.35;2.33;;;;;;;8.01;63.04;99050.80;1760144;80;21404;-54
2022/02/08 06:25:41;;;;;;;5.50;2.55;;;;;;;8.04;62.76;99048.03;1750895;80;21503;-54
2022/02/08 06:28:10;;;;;;;3.20;2.40;;;;;;;8.02;62.74;99051.64;1757679;80;21051;-55
2022/02/08 06:30:36;;;;;;;3.47;2.40;;;;;;;8.05;62.72;99064.61;1747922;80;21484;-54
2022/02/08 06:33:04;;;;;;;3.20;2.10;;;;;;;8.19;62.84;99069.67;1766023;80;21418;-55
2022/02/08 06:35:33;;;;;;;5.37;2.37;;;;;;;8.26;62.48;99078.56;1764698;80;22511;-55
2022/02/08 06:38:01;;;;;;;3.65;2.65;;;;;;;8.30;62.30;99084.06;1760756;80;21404;-55
2022/02/08 06:40:31;;;;;;;3.90;2.50;;;;;;;8.28;62.44;99080.66;1760100;80;21533;-58
2022/02/08 06:42:59;;;;;;;4.53;2.83;;;;;;;8.31;62.29;99089.24;1756896;80;21419;-55
2022/02/08 06:45:26;;;;;;;3.27;2.65;;;;;;;8.38;62.33;99090.69;1763736;80;21530;-55
2022/02/08 06:47:53;;;;;;;5.10;2.43;;;;;;;8.45;61.93;99094.38;1760735;80;22203;-55
2022/02/08 06:50:20;;;;;;;4.17;2.60;;;;;;;8.39;61.60;99102.02;1759330;80;21494;-55
2022/02/08 06:52:47;;;;;;;4.83;2.40;;;;;;;8.34;61.49;99107.46;1758065;80;21569;-55
2022/02/08 06:55:14;;;;;;;3.55;2.60;;;;;;;8.31;61.34;99108.89;1765339;80;21438;-54
2022/02/08 07:00:33;;;;;;;3.80;2.27;;;;;;;8.53;61.02;99103.63;1765186;80;22636;-53
2022/02/08 07:02:59;;;;;;;2.77;2.27;;;;;;;8.62;60.72;99103.67;1759917;80;20957;-53
2022/02/08 07:05:25;;;;;;;3.22;2.10;;;;;;;8.55;60.48;99105.72;1764240;80;21506;-53
2022/02/08 07:07:53;;;;;;;3.98;2.58;;;;;;;8.48;60.76;99116.06;1749808;80;21561;-54
2022/02/08 07:10:20;;;;;;;5.05;2.47;;;;;;;8.60;60.87;99119.08;1751748;80;21422;-54
2022/02/08 07:12:50;;;;;;;3.83;2.65;;;;;;;8.72;60.20;99122.46;1766893;80;23262;-53
2022/02/08 07:15:18;;;;;;;5.37;2.80;;;;;;;8.74;59.95;99128.05;1758302;80;21427;-54
2022/02/08 07:17:45;;;;;;;5.90;3.12;;;;;;;8.68;59.82;99131.38;1756263;80;21521;-54
2022/02/08 07:20:12;;;;;;;5.17;2.92;;;;;;;8.64;59.78;99140.30;1748599;80;21517;-54
2022/02/08 07:22:39;;;;;;;5.63;3.07;;;;;;;8.71;58.97;99152.23;1756672;80;21433;-53
2022/02/08 07:25:06;;;;;;;6.97;3.90;;;;;;;8.82;58.99;99155.23;1757629;80;21692;-53
2022/02/08 07:27:33;;;;;;;10.28;3.60;;;;;;;8.87;58.78;99161.58;1750709;80;21482;-53
2022/02/08 07:30:08;;;;;;;7.35;4.03;;;;;;;8.85;58.96;99169.50;1757298;80;21534;-53
2022/02/08 07:32:35;;;;;;;4.00;2.95;;;;;;;8.81;58.48;99167.94;1752392;80;21525;-53
2022/02/08 07:35:25;;;;;;;5.72;3.10;;;;;;;8.86;58.48;99171.69;1757984;80;21566;-55
2022/02/08 07:40:27;;;;;;;6.85;3.67;;;;;;;8.89;57.66;99184.64;1761695;80;21346;-54
2022/02/08 07:42:44;;;;;;;4.62;2.55;;;;;;;8.88;58.32;99189.05;1752022;80;20843;-54
2022/02/08 07:45:11;;;;;;;6.95;3.42;;;;;;;8.91;58.88;99190.23;1749708;80;21471;-55
2022/02/08 07:47:38;;;;;;;4.92;3.22;;;;;;;9.02;58.19;99192.37;1707118;82;21498;-54
2022/02/08 07:50:06;;;;;;;4.12;2.85;;;;;;;9.17;57.87;99197.41;1686208;83;21442;-53
2022/02/08 07:52:33;;;;;;;3.72;2.70;;;;;;;9.24;57.80;99203.25;1698157;82;21445;-54
2022/02/08 07:55:00;;;;;;;3.58;2.40;;;;;;;9.25;57.69;99203.19;1699397;82;21503;-54
2022/02/08 07:57:27;;;;;;;5.60;2.30;;;;;;;9.19;57.02;99207.84;1697643;82;21442;-54
2022/02/08 07:59:54;;;;;;;4.37;2.35;;;;;;;9.21;57.07;99208.18;1703278;83;21487;-54
2022/02/08 08:02:20;;;;;;;4.20;2.60;;;;;;;9.28;56.37;99213.52;1701069;83;22687;-54
2022/02/08 08:04:47;;;;;;;3.35;2.02;;;;;;;9.30;55.93;99215.61;1696904;82;21489;-54
2022/02/08 08:07:14;;;;;;;4.65;2.22;;;;;;;9.24;56.73;99211.96;1681374;83;21396;-54
2022/02/08 08:09:42;;;;;;;2.92;2.08;;;;;;;9.20;56.73;99222.67;1676442;83;21848;-54
2022/02/08 08:12:12;;;;;;;2.42;1.87;;;;;;;9.21;56.50;99223.92;1679994;83;21400;-54
2022/02/08 08:14:38;;;;;;;7.22;2.90;;;;;;;9.30;55.27;99222.17;1668990;83;22343;-54
2022/02/08 08:17:40;;;;;;;2.60;2.02;;;;;;;9.35;55.61;99234.64;1733926;80;21388;-54
2022/02/08 08:19:52;;;;;;;3.47;1.90;;;;;;;9.30;55.62;99233.14;1726299;81;21339;-54
2022/02/08 08:22:19;;;;;;;3.83;2.07;;;;;;;9.13;54.42;99244.36;1722912;80;21549;-54
2022/02/08 08:24:47;;;;;;;3.65;1.90;;;;;;;9.09;55.14;99249.36;1724730;80;20851;-54
2022/02/08 08:27:14;;;;;;;3.05;2.05;;;;;;;9.19;55.62;99250.65;1728736;80;22372;-56
2022/02/08 08:29:43;;;;;;;3.72;2.37;;;;;;;9.31;55.01;99252.75;1731891;80;21525;-54
2022/02/08 08:32:11;;;;;;;4.12;2.40;;;;;;;9.33;54.70;99262.72;1726640;80;21438;-55
2022/02/08 08:34:39;;;;;;;4.75;2.10;;;;;;;9.30;55.10;99258.91;1726704;80;21474;-54
2022/02/08 08:37:06;;;;;;;5.05;2.35;;;;;;;9.26;54.86;99270.92;1694604;83;21553;-55
2022/02/08 08:39:46;;;;;;;6.00;2.12;;;;;;;9.34;54.59;99270.12;1730788;80;21542;-55
2022/02/08 08:42:18;;;;;;;4.47;2.42;;;;;;;9.44;54.13;99279.31;1724833;80;21515;-55
2022/02/08 08:52:32;;;;;;;3.70;1.98;;;;;;;9.32;53.79;99279.39;1699846;83;22350;-54
2022/02/08 08:54:58;;;;;;;6.37;2.37;;;;;;;9.45;52.76;99286.72;1738052;80;21388;-54
2022/02/08 08:57:27;;;;;;;3.77;2.67;;;;;;;9.45;53.25;99291.97;1738887;80;21340;-53
2022/02/08 08:59:53;;;;;;;3.37;2.30;;;;;;;9.38;52.86;99290.52;1729803;80;21470;-54
2022/02/08 09:02:20;;;;;;;2.90;2.27;;;;;;;9.44;52.98;99293.74;1732173;80;21482;-54
2022/02/08 09:04:48;;;;;;;4.33;2.02;;;;;;;9.49;53.64;99294.84;1735398;80;22457;-53
2022/02/08 09:07:16;;;;;;;2.70;1.98;;;;;;;9.57;52.83;99298.00;1742137;80;21408;-54
2022/02/08 09:09:45;;;;;;;2.37;1.77;;;;;;;9.78;53.09;99304.06;1752718;80;21459;-53
2022/02/08 09:12:38;;;;;;;4.37;2.58;;;;;;;9.89;52.82;99299.17;1754561;80;21450;-54
2022/02/08 09:15:31;;;;;;;4.53;2.33;;;;;;;9.89;53.00;99303.59;1758442;80;20866;-54
2022/02/08 09:22:31;;;;;;;3.60;2.27;;;;;;;9.68;53.01;99311.50;1727321;81;21395;-56
2022/02/08 09:25:06;;;;;;;3.75;2.40;;;;;;;9.90;52.21;99307.43;1729325;81;22493;-57
2022/02/08 09:30:19;;;;;;;2.90;2.25;;;;;;;10.06;50.44;99314.16;1741384;81;20376;-55
2022/02/08 09:32:45;;;;;;;4.83;2.50;;;;;;;10.08;52.08;99314.95;1732926;81;21447;-55
2022/02/08 09:35:12;;;;;;;2.67;2.33;;;;;;;10.08;52.04;99320.20;1727333;81;21486;-55
2022/02/08 09:37:39;;;;;;;4.45;2.10;;;;;;;10.05;52.17;99322.11;1731040;81;26414;-55
2022/02/08 09:40:06;;;;;;;3.55;1.85;;;;;;;10.07;50.14;99308.44;1735272;81;21490;-55
2022/02/08 09:42:38;;;;;;;2.52;1.62;;;;;;;10.05;50.91;99313.76;1736659;81;21534;-54
2022/02/08 09:45:05;;;;;;;1.62;1.20;;;;;;;9.92;49.60;99317.40;1737178;81;20989;-54
2022/02/08 09:47:53;;;;;;;1.98;1.25;;;;;;;9.76;49.40;99322.97;1735245;81;21035;-54
2022/02/08 09:50:24;;;;;;;3.40;1.62;;;;;;;9.63;49.40;99314.78;1733501;81;22488;-55
2022/02/08 09:52:53;;;;;;;3.87;1.47;;;;;;;9.57;49.28;99308.94;1733829;81;21399;-54
2022/02/08 09:55:20;;;;;;;4.33;1.37;;;;;;;9.54;49.13;99319.97;1738502;81;21525;-55
2022/02/08 09:57:48;;;;;;;2.87;1.27;;;;;;;9.57;48.75;99320.75;1738217;81;21569;-55
2022/02/08 10:00:16;;;;;;;;;;;;;;;9.68;48.88;99324.63;1743921;81;21523;-55
2022/02/08 10:02:42;;;;;;;2.85;1.77;;;;;;;9.65;47.31;99313.41;1741962;81;21545;-55
2022/02/08 10:05:09;;;;;;;2.65;1.30;;;;;;;9.61;48.58;99321.03;1679385;84;21632;-54
2022/02/08 10:07:36;;;;;;;3.37;1.75;;;;;;;9.62;48.76;99320.94;1707127;83;21536;-55
2022/02/08 10:10:09;;;;;;;2.70;1.35;;;;;;;9.66;49.16;99322.53;1671307;84;21483;-55
2022/02/08 10:23:36;;;;;;;5.42;2.05;;;;;;;9.73;46.88;99307.34;1637082;85;21447;-55
2022/02/08 10:26:09;;;;;;;3.77;1.90;;;;;;;9.63;48.20;99309.53;1669834;84;21459;-55
2022/02/08 10:29:03;;;;;;;3.30;2.30;;;;;;;9.62;48.59;99311.75;1626587;86;22556;-54
2022/02/08 10:40:07;;;;;;;5.97;2.40;;;;;;;9.47;48.20;99315.89;1735022;81;21590;-55
2022/02/08 10:42:36;;;;;;;2.33;1.25;;;;;;;9.48;48.78;99308.89;1720251;81;21551;-56
2022/02/08 10:45:06;;;;;;;2.85;1.25;;;;;;;9.41;48.04;99311.39;1734092;81;21343;-55
2022/02/08 10:47:45;;;;;;;5.22;1.80;;;;;;;9.37;47.77;99315.91;1724918;81;21429;-54
2022/02/08 10:50:10;;;;;;;2.87;1.55;;;;;;;9.37;48.84;99314.60;1728098;82;21482;-55
2022/02/08 10:52:42;;;;;;;2.50;1.10;;;;;;;9.38;47.95;99313.70;1726141;81;21438;-54
2022/02/08 10:55:23;;;;;;;2.72;1.17;;;;;;;9.41;48.87;99313.55;1724834;82;22509;-53
2022/02/08 10:57:49;;;;;;;3.25;1.20;;;;;;;9.47;48.96;99305.86;1703528;82;21400;-54
2022/02/08 11:00:10;;;;;;;1.87;1.10;;;;;;;9.57;47.58;99312.44;1724500;82;21420;-54
2022/02/08 11:02:43;;;;;;;;;;;;;;;9.67;47.86;99313.72;1731198;81;21584;-54
2022/02/08 11:08:13;;;;;;;3.47;1.30;;;;;;;9.72;48.42;99319.62;1645613;85;22753;-55
2022/02/08 11:11:04;;;;;;;2.77;1.35;;;;;;;9.71;48.17;99321.84;1688044;82;20850;-54
2022/02/08 11:16:09;;;;;;;4.37;1.35;;;;;;;9.49;47.15;99319.77;1722062;82;21430;-55
2022/02/08 11:18:37;;;;;;;3.60;1.37;;;;;;;9.49;47.65;99326.33;1722304;82;21411;-55
2022/02/08 11:21:28;;;;;;;3.58;1.10;;;;;;;9.43;46.81;99325.30;1687984;84;22723;-55
2022/02/08 11:26:34;;;;;;;4.78;1.40;;;;;;;9.65;46.68;99316.88;1689330;83;21530;-54
2022/02/08 11:29:22;;;;;;;2.10;1.25;;;;;;;9.68;47.12;99315.44;1693619;83;21415;-55
2022/02/08 11:31:52;;;;;;;4.50;1.72;;;;;;;9.63;46.85;99316.56;1694291;84;21798;-54
2022/02/08 11:43:06;;;;;;;2.30;1.65;;;;;;;9.73;48.21;99320.47;1666578;85;21556;-55
2022/02/08 11:50:47;;;;;;;3.35;2.10;;;;;;;9.80;46.96;99321.06;1663139;84;21561;-55
2022/02/08 11:53:27;;;;;;;3.20;1.90;;;;;;;9.78;46.57;99326.84;1654920;84;21555;-55
2022/02/08 12:02:14;;;;;;;2.02;1.67;;;;;;;9.59;47.13;99332.91;1668020;85;22479;-54
2022/02/08 12:09:46;;;;;;;6.50;2.00;;;;;;;9.59;47.79;99353.03;1665756;84;21447;-54
2022/02/08 12:29:24;;;;;;;4.30;1.70;;;;;;;9.41;47.56;99358.16;1665908;84;22505;-55
2022/02/08 12:31:34;;;;;;;3.33;1.37;;;;;;;9.43;47.72;99362.03;1656346;84;21328;-53
2022/02/08 12:55:55;;;;;;;7.25;2.45;;;;;;;9.50;46.88;99385.79;1635054;86;22560;-53
2022/02/08 12:58:28;;;;;;;7.33;2.77;;;;;;;9.54;47.55;99392.61;1628676;86;21427;-53
2022/02/08 13:20:14;;;;;;;3.90;2.40;;;;;;;9.49;46.97;99385.38;1720060;82;21538;-54
2022/02/08 14:04:19;;;;;;;2.77;1.77;;;;;;;9.22;45.20;99403.98;1689252;83;22514;-54
2022/02/08 14:06:51;;;;;;;5.75;2.20;;;;;;;9.11;44.62;99404.88;1681261;83;20903;-55
2022/02/08 14:09:00;;;;;;;2.95;1.80;;;;;;;9.05;44.14;99405.14;1704559;81;21390;-56
2022/02/08 14:14:09;;;;;;;3.12;1.75;;;;;;;8.98;44.23;99405.83;1735890;81;21466;-54
2022/02/08 14:21:54;;;;;;;4.45;2.60;;;;;;;8.95;44.59;99412.53;1722216;82;21389;-52
2022/02/08 14:24:20;;;;;;;5.47;2.30;;;;;;;8.92;44.11;99421.81;1712163;82;21483;-54
2022/02/08 14:29:46;;;;;;;3.77;1.82;;;;;;;8.84;44.38;99417.34;1718943;82;22379;-54
2022/02/08 15:09:52;;;;;;;3.47;2.10;;;;;;;8.52;44.98;99420.74;1728572;82;22426;-54
2022/02/08 15:12:17;;;;;;;7.03;3.58;;;;;;;8.50;45.14;99422.57;1709098;82;21494;-55
2022/02/08 15:14:52;;;;;;;6.65;2.85;;;;;;;8.50;45.25;99427.34;1710679;82;21317;-54
2022/02/08 15:17:13;;;;;;;5.00;2.62;;;;;;;8.46;45.33;99432.31;1709593;82;21500;-54
2022/02/08 15:19:42;;;;;;;3.92;2.50;;;;;;;8.46;45.48;99431.00;1710285;83;21534;-53
2022/02/08 15:22:09;;;;;;;4.92;2.80;;;;;;;8.50;45.74;99429.97;1710669;83;22497;-54
2022/02/08 15:24:36;;;;;;;6.65;2.70;;;;;;;8.53;45.92;99426.36;1711024;83;21374;-53
2022/02/08 15:27:03;;;;;;;5.85;3.20;;;;;;;8.42;45.49;99428.10;1713323;81;21006;-54
2022/02/08 15:29:32;;;;;;;6.65;2.95;;;;;;;8.49;45.61;99440.50;1698504;83;21518;-53
2022/02/08 15:32:01;;;;;;;7.62;3.58;;;;;;;8.46;45.68;99437.55;1707637;83;21510;-54
2022/02/08 15:34:28;;;;;;;6.75;3.00;;;;;;;8.54;46.05;99443.34;1711107;82;22373;-55
2022/02/08 15:36:55;;;;;;;7.25;2.72;;;;;;;8.49;46.04;99438.73;1709613;82;21472;-55
2022/02/08 15:39:22;;;;;;;3.37;1.90;;;;;;;8.47;46.22;99443.17;1711453;83;21449;-54
2022/02/08 15:41:49;;;;;;;5.58;2.37;;;;;;;8.47;46.22;99443.17;1712137;83;26463;-55
2022/02/08 15:44:23;;;;;;;2.37;1.72;;;;;;;8.48;45.75;99440.96;1700939;83;21435;-54
2022/02/08 15:46:50;;;;;;;3.92;2.58;;;;;;;8.48;46.03;99439.66;1709461;83;22820;-53
2022/02/08 15:49:17;;;;;;;4.47;2.15;;;;;;;8.43;46.03;99437.66;1711469;83;21478;-54
2022/02/08 15:51:46;;;;;;;4.15;2.35;;;;;;;8.42;46.20;99438.58;1710316;82;21817;-54
2022/02/08 16:05:13;;;;;;;6.45;3.42;;;;;;;8.37;45.91;99440.02;1718325;82;21433;-55
2022/02/08 16:07:35;;;;;;;6.08;3.33;;;;;;;8.45;46.45;99445.00;1718716;82;22086;-53
2022/02/08 16:10:04;;;;;;;8.33;4.22;;;;;;;8.48;46.50;99442.73;1717589;81;20870;-56
2022/02/08 16:12:34;;;;;;;7.35;3.60;;;;;;;8.49;46.55;99439.19;1714737;81;22512;-54
2022/02/08 16:17:34;;;;;;;7.42;3.45;;;;;;;8.55;46.27;99439.83;1713622;81;21484;-54
2022/02/08 16:25:28;;;;;;;6.92;3.35;;;;;;;8.48;46.35;99435.72;1674521;81;22441;-55
2022/02/08 16:33:16;;;;;;;6.00;3.33;;;;;;;8.45;46.70;99428.43;1715458;81;21578;-54
2022/02/08 16:54:27;;;;;;;;;;;;;;;8.58;46.69;99446.70;1716644;81;21157;-54
2022/02/08 16:59:35;;;;;;;10.85;4.53;;;;;;;8.49;46.50;99455.75;1710073;82;21413;-55
2022/02/08 17:02:02;;;;;;;7.35;3.85;;;;;;;8.45;46.15;99458.56;1680482;82;20843;-56
2022/02/08 17:04:28;;;;;;;7.37;3.65;;;;;;;8.39;46.18;99459.61;1690282;82;22444;-57
2022/02/08 17:06:55;;;;;;;7.60;3.98;;;;;;;8.32;45.86;99456.81;1691117;82;21544;-55
2022/02/08 17:09:41;;;;;;;7.72;4.03;;;;;;;8.28;45.77;99458.68;1699902;82;20945;-55
2022/02/08 17:12:09;;;;;;;8.43;4.10;;;;;;;8.32;45.84;99451.57;1692102;82;21742;-56
2022/02/08 17:17:30;;;;;;;6.90;3.30;;;;;;;8.18;45.47;99460.78;1695590;82;21426;-54
2022/02/08 17:19:56;;;;;;;9.75;4.87;;;;;;;8.12;45.38;99461.02;1689442;82;21481;-54
2022/02/08 17:46:50;;;;;;;11.30;5.30;;;;;;;7.93;46.80;99448.16;1710228;82;21522;-53
2022/02/08 17:49:08;;;;;;;6.45;3.80;;;;;;;7.99;46.78;99447.49;1667583;83;20941;-55
2022/02/08 17:51:34;;;;;;;9.28;4.15;;;;;;;8.02;46.62;99450.91;1684089;83;21539;-53
2022/02/08 17:54:01;;;;;;;7.10;3.85;;;;;;;8.04;47.07;99454.33;1678776;83;21025;-54
2022/02/08 17:56:28;;;;;;;7.70;4.40;;;;;;;8.06;47.09;99456.44;1666321;84;22524;-53
2022/02/08 17:58:55;;;;;;;6.60;4.53;;;;;;;8.01;46.98;99454.45;1676162;83;21587;-53
2022/02/08 18:01:24;;;;;;;6.00;4.42;;;;;;;8.07;47.37;99456.84;1676415;83;20943;-53
2022/02/08 18:03:51;;;;;;;8.35;4.60;;;;;;;8.06;47.03;99454.70;1680537;83;21575;-53
2022/02/08 18:06:18;;;;;;;6.55;4.60;;;;;;;8.08;47.05;99455.49;1679382;83;20930;-53
2022/02/08 18:08:47;;;;;;;10.18;4.92;;;;;;;8.10;47.34;99451.05;1686467;83;22745;-53
2022/02/08 18:11:13;;;;;;;6.20;4.15;;;;;;;8.07;47.54;99447.69;1674640;83;21534;-52